createdAt,value
2017-10-28T00:02:05.882Z,12.40
2017-10-28T00:04:34.142Z,12.40
2017-10-28T00:07:02.416Z,12.40
2017-10-28T00:09:30.656Z,12.30
2017-10-28T00:11:59.737Z,12.30
2017-10-28T00:14:27.991Z,12.30
2017-10-28T00:16:56.281Z,12.30
2017-10-28T00:19:24.510Z,12.30
2017-10-28T00:21:52.753Z,12.30
2017-10-28T00:24:21.099Z,12.30
2017-10-28T00:26:49.359Z,12.30
2017-10-28T00:29:17.799Z,12.30
2017-10-28T00:31:51.582Z,12.20
2017-10-28T00:34:25.499Z,12.20
2017-10-28T00:36:53.738Z,12.20
2017-10-28T00:39:22.059Z,12.20
2017-10-28T00:41:50.305Z,12.20
2017-10-28T00:44:18.574Z,12.20
2017-10-28T00:46:46.807Z,12.20
2017-10-28T00:49:15.097Z,12.30
2017-10-28T00:51:43.342Z,12.30
2017-10-28T00:54:11.583Z,12.30
2017-10-28T00:56:39.848Z,12.30
2017-10-28T00:59:08.108Z,12.30
2017-10-28T01:01:36.437Z,12.30
2017-10-28T01:04:04.673Z,12.30
2017-10-28T01:06:32.974Z,12.30
2017-10-28T01:09:01.196Z,12.20
2017-10-28T01:11:29.494Z,12.20
2017-10-28T01:13:57.724Z,12.30
2017-10-28T01:16:25.979Z,12.20
2017-10-28T01:18:54.216Z,12.20
2017-10-28T01:21:22.492Z,12.20
2017-10-28T01:23:50.764Z,12.20
2017-10-28T01:26:19.045Z,12.20
2017-10-28T01:28:47.320Z,12.20
2017-10-28T01:31:15.586Z,12.20
2017-10-28T01:33:43.852Z,12.30
2017-10-28T01:36:12.090Z,12.20
2017-10-28T01:38:40.349Z,12.30
2017-10-28T01:41:08.585Z,12.20
2017-10-28T01:43:37.608Z,12.20
2017-10-28T01:46:05.846Z,12.20
2017-10-28T01:48:34.868Z,12.10
2017-10-28T01:51:03.136Z,12.10
2017-10-28T01:53:31.391Z,12.10
2017-10-28T01:55:59.632Z,12.10
2017-10-28T01:58:27.893Z,12.10
2017-10-28T02:00:56.174Z,12.10
2017-10-28T02:03:24.431Z,12.10
2017-10-28T02:05:52.681Z,12.20
2017-10-28T02:08:21.695Z,12.20
2017-10-28T02:10:49.948Z,12.20
2017-10-28T02:13:18.997Z,12.20
2017-10-28T02:15:47.243Z,12.10
2017-10-28T02:18:15.503Z,12.20
2017-10-28T02:20:43.731Z,12.10
2017-10-28T02:23:11.998Z,12.10
2017-10-28T02:25:40.273Z,12.10
2017-10-28T02:28:08.516Z,12.10
2017-10-28T02:30:36.788Z,12.10
2017-10-28T02:33:05.833Z,12.00
2017-10-28T02:35:34.085Z,12.10
2017-10-28T02:38:02.355Z,12.00
2017-10-28T02:40:30.602Z,12.00
2017-10-28T02:42:58.852Z,12.00
2017-10-28T02:45:27.129Z,11.90
2017-10-28T02:47:55.428Z,11.90
2017-10-28T02:50:23.674Z,12.00
2017-10-28T02:52:51.956Z,11.90
2017-10-28T02:55:20.190Z,11.90
2017-10-28T02:57:48.429Z,11.90
2017-10-28T03:00:16.711Z,11.90
2017-10-28T03:02:44.951Z,11.90
2017-10-28T03:05:14.014Z,11.90
2017-10-28T03:07:42.272Z,11.90
2017-10-28T03:10:10.709Z,11.80
2017-10-28T03:12:38.953Z,11.80
2017-10-28T03:15:07.214Z,11.80
2017-10-28T03:17:35.463Z,11.70
2017-10-28T03:20:04.494Z,11.70
2017-10-28T03:22:32.739Z,11.70
2017-10-28T03:25:01.188Z,11.70
2017-10-28T03:27:29.446Z,11.70
2017-10-28T03:29:57.747Z,11.70
2017-10-28T03:32:25.992Z,11.70
2017-10-28T03:34:54.225Z,11.70
2017-10-28T03:37:22.498Z,11.60
2017-10-28T03:39:51.494Z,11.60
2017-10-28T03:42:19.758Z,11.60
2017-10-28T03:44:47.984Z,11.60
2017-10-28T03:47:16.268Z,11.60
2017-10-28T03:49:44.501Z,11.60
2017-10-28T03:52:12.770Z,11.50
2017-10-28T03:54:41.031Z,11.50
2017-10-28T03:57:10.048Z,11.50
2017-10-28T03:59:38.301Z,11.40
2017-10-28T04:02:06.532Z,11.50
2017-10-28T04:04:34.803Z,11.40
2017-10-28T04:07:03.027Z,11.40
2017-10-28T04:09:32.070Z,11.30
2017-10-28T04:12:00.297Z,11.30
2017-10-28T04:14:28.561Z,11.30
2017-10-28T04:16:56.799Z,11.30
2017-10-28T04:19:25.058Z,11.30
2017-10-28T04:21:53.305Z,11.30
2017-10-28T04:24:22.325Z,11.30
2017-10-28T04:26:50.560Z,11.30
2017-10-28T04:29:19.036Z,11.30
2017-10-28T04:31:47.268Z,11.30
2017-10-28T04:34:15.655Z,11.30
2017-10-28T04:36:43.927Z,11.30
2017-10-28T04:39:12.208Z,11.20
2017-10-28T04:41:40.481Z,11.20
2017-10-28T04:44:08.730Z,11.20
2017-10-28T04:46:37.007Z,11.30
2017-10-28T04:49:05.277Z,11.40
2017-10-28T04:51:33.502Z,11.30
2017-10-28T04:54:01.798Z,11.30
2017-10-28T04:56:30.027Z,11.20
2017-10-28T04:58:58.274Z,11.20
2017-10-28T05:01:27.303Z,11.20
2017-10-28T05:03:55.567Z,11.10
2017-10-28T05:06:23.834Z,11.10
2017-10-28T05:08:52.068Z,11.10
2017-10-28T05:11:20.356Z,11.10
2017-10-28T05:13:48.828Z,11.20
2017-10-28T05:16:17.066Z,11.20
2017-10-28T05:18:45.330Z,11.10
2017-10-28T05:21:13.576Z,11.10
2017-10-28T05:23:42.608Z,11.20
2017-10-28T05:26:10.897Z,11.20
2017-10-28T05:28:39.144Z,11.40
2017-10-28T05:31:07.408Z,11.80
2017-10-28T05:33:35.672Z,12.00
2017-10-28T05:36:04.704Z,11.70
2017-10-28T05:38:32.948Z,11.70
2017-10-28T05:41:01.995Z,11.50
2017-10-28T05:43:31.032Z,11.40
2017-10-28T05:45:59.263Z,11.40
2017-10-28T05:48:27.535Z,11.40
2017-10-28T05:50:55.804Z,11.30
2017-10-28T05:53:24.065Z,11.30
2017-10-28T05:55:52.311Z,11.30
2017-10-28T05:58:21.357Z,11.20
2017-10-28T06:00:49.631Z,11.20
2017-10-28T06:03:17.901Z,11.20
2017-10-28T06:05:46.152Z,11.10
2017-10-28T06:08:14.439Z,11.20
2017-10-28T06:10:42.691Z,11.10
2017-10-28T06:13:10.967Z,11.20
2017-10-28T06:15:39.200Z,11.10
2017-10-28T06:18:07.454Z,11.10
2017-10-28T06:20:35.729Z,11.10
2017-10-28T06:23:03.963Z,11.20
2017-10-28T06:25:33.009Z,11.10
2017-10-28T06:28:01.252Z,11.10
2017-10-28T06:30:29.525Z,11.20
2017-10-28T06:32:57.776Z,11.20
2017-10-28T06:35:26.043Z,11.20
2017-10-28T06:37:54.302Z,11.10
2017-10-28T06:40:22.615Z,11.10
2017-10-28T06:42:50.894Z,11.10
2017-10-28T06:45:19.164Z,11.10
2017-10-28T06:47:47.447Z,11.10
2017-10-28T06:50:15.698Z,11.10
2017-10-28T06:52:43.962Z,11.10
2017-10-28T06:55:12.244Z,11.10
2017-10-28T06:57:40.523Z,11.10
2017-10-28T07:00:08.814Z,11.20
2017-10-28T07:02:37.086Z,11.10
2017-10-28T07:05:06.104Z,11.20
2017-10-28T07:07:34.380Z,11.10
2017-10-28T07:10:02.694Z,11.20
2017-10-28T07:12:30.959Z,11.20
2017-10-28T07:14:59.227Z,11.30
2017-10-28T07:17:27.713Z,11.20
2017-10-28T07:19:56.043Z,11.20
2017-10-28T07:22:25.148Z,11.30
2017-10-28T07:24:53.467Z,11.20
2017-10-28T07:27:21.734Z,11.20
2017-10-28T07:29:50.027Z,11.20
2017-10-28T07:32:18.276Z,11.20
2017-10-28T07:34:46.578Z,11.30
2017-10-28T07:37:14.867Z,11.40
2017-10-28T07:39:43.139Z,11.40
2017-10-28T07:42:11.406Z,11.40
2017-10-28T07:44:39.695Z,11.30
2017-10-28T07:47:07.949Z,11.30
2017-10-28T07:49:36.232Z,11.20
2017-10-28T07:52:04.484Z,11.20
2017-10-28T07:54:32.734Z,11.20
2017-10-28T07:57:01.012Z,11.20
2017-10-28T07:59:29.284Z,11.10
2017-10-28T08:01:57.588Z,11.20
2017-10-28T08:04:25.822Z,11.20
2017-10-28T08:06:54.094Z,11.20
2017-10-28T08:09:22.373Z,11.20
2017-10-28T08:11:50.638Z,11.20
2017-10-28T08:14:18.927Z,11.30
2017-10-28T08:16:47.176Z,11.30
2017-10-28T08:19:15.463Z,11.30
2017-10-28T08:21:43.707Z,11.30
2017-10-28T08:24:12.022Z,11.30
2017-10-28T08:26:40.283Z,11.30
2017-10-28T08:29:08.558Z,11.20
2017-10-28T08:31:36.854Z,11.20
2017-10-28T08:34:05.089Z,11.20
2017-10-28T08:36:33.378Z,11.20
2017-10-28T08:39:01.609Z,11.20
2017-10-28T08:41:29.915Z,11.20
2017-10-28T08:43:58.191Z,11.30
2017-10-28T08:46:26.564Z,11.30
2017-10-28T08:48:54.981Z,11.40
2017-10-28T08:51:23.256Z,11.40
2017-10-28T08:53:51.636Z,11.30
2017-10-28T08:56:20.050Z,11.30
2017-10-28T08:58:48.325Z,11.40
2017-10-28T09:01:16.562Z,11.40
2017-10-28T09:03:45.291Z,11.50
2017-10-28T09:06:13.496Z,11.50
2017-10-28T09:08:41.769Z,11.60
2017-10-28T09:11:10.052Z,11.60
2017-10-28T09:13:38.323Z,11.60
2017-10-28T09:16:07.348Z,11.60
2017-10-28T09:18:35.690Z,11.60
2017-10-28T09:21:04.721Z,11.60
2017-10-28T09:23:32.958Z,11.60
2017-10-28T09:26:01.253Z,11.70
2017-10-28T09:28:29.516Z,11.60
2017-10-28T09:30:57.762Z,11.60
2017-10-28T09:33:26.028Z,11.60
2017-10-28T09:35:54.271Z,11.60
2017-10-28T09:38:22.530Z,11.60
2017-10-28T09:40:50.830Z,11.60
2017-10-28T09:43:19.085Z,11.60
2017-10-28T09:45:47.337Z,11.60
2017-10-28T09:48:15.609Z,11.60
2017-10-28T09:50:44.629Z,11.70
2017-10-28T09:53:12.922Z,11.70
2017-10-28T09:55:41.190Z,11.70
2017-10-28T09:58:09.477Z,11.70
2017-10-28T10:00:37.767Z,11.70
2017-10-28T10:03:06.051Z,11.70
2017-10-28T10:05:34.334Z,11.70
2017-10-28T10:08:02.599Z,11.70
2017-10-28T10:10:30.897Z,11.70
2017-10-28T10:12:59.255Z,11.80
2017-10-28T10:15:27.543Z,11.80
2017-10-28T10:17:55.770Z,11.80
2017-10-28T10:20:24.017Z,11.70
2017-10-28T10:22:53.041Z,11.80
2017-10-28T10:25:21.300Z,11.80
2017-10-28T10:27:50.307Z,11.90
2017-10-28T10:30:18.606Z,11.90
2017-10-28T10:32:46.880Z,11.90
2017-10-28T10:35:15.292Z,11.90
2017-10-28T10:37:43.610Z,11.90
2017-10-28T10:40:12.612Z,11.90
2017-10-28T10:42:40.900Z,11.90
2017-10-28T10:45:09.163Z,11.90
2017-10-28T10:47:37.392Z,12.00
2017-10-28T10:50:05.638Z,12.00
2017-10-28T10:52:33.927Z,12.00
2017-10-28T10:55:02.192Z,11.90
2017-10-28T10:57:31.503Z,11.90
2017-10-28T10:59:59.784Z,11.90
2017-10-28T11:02:28.082Z,11.90
2017-10-28T11:04:56.338Z,12.00
2017-10-28T11:07:24.634Z,12.00
2017-10-28T11:09:52.873Z,11.90
2017-10-28T11:12:21.165Z,11.90
2017-10-28T11:14:49.456Z,11.80
2017-10-28T11:17:18.480Z,11.90
2017-10-28T11:19:46.738Z,11.80
2017-10-28T11:22:14.997Z,11.90
2017-10-28T11:24:43.341Z,11.80
2017-10-28T11:27:11.684Z,11.80
2017-10-28T11:29:39.951Z,11.90
2017-10-28T11:32:08.324Z,11.90
2017-10-28T11:34:36.594Z,11.90
2017-10-28T11:37:04.855Z,12.00
2017-10-28T11:39:33.117Z,12.00
2017-10-28T11:42:01.652Z,12.00
2017-10-28T11:44:29.879Z,12.00
2017-10-28T11:46:58.254Z,12.00
2017-10-28T11:49:26.643Z,12.10
2017-10-28T11:51:54.926Z,12.10
2017-10-28T11:54:23.224Z,12.10
2017-10-28T11:56:51.470Z,12.20
2017-10-28T11:59:19.765Z,12.20
2017-10-28T12:01:48.096Z,12.10
2017-10-28T12:04:16.343Z,12.10
2017-10-28T12:06:45.357Z,12.20
2017-10-28T12:09:13.747Z,12.20
2017-10-28T12:11:42.330Z,12.20
2017-10-28T12:14:10.616Z,12.20
2017-10-28T12:16:38.921Z,12.20
2017-10-28T12:19:07.213Z,12.20
2017-10-28T12:21:35.448Z,12.30
2017-10-28T12:24:03.746Z,12.30
2017-10-28T12:26:32.007Z,12.30
2017-10-28T12:29:00.293Z,12.30
2017-10-28T12:31:28.618Z,12.40
2017-10-28T12:33:57.639Z,12.40
2017-10-28T12:36:25.928Z,12.40
2017-10-28T12:38:54.173Z,12.40
2017-10-28T12:41:22.449Z,12.50
2017-10-28T12:43:50.748Z,12.50
2017-10-28T12:46:19.096Z,12.60
2017-10-28T12:48:47.359Z,12.50
2017-10-28T12:51:15.760Z,12.50
2017-10-28T12:53:44.010Z,12.50
2017-10-28T12:56:12.308Z,12.60
2017-10-28T12:58:40.588Z,12.60
2017-10-28T13:01:09.680Z,12.60
2017-10-28T13:03:38.061Z,12.60
2017-10-28T13:06:07.156Z,12.60
2017-10-28T13:08:36.262Z,12.60
2017-10-28T13:11:05.251Z,12.70
2017-10-28T13:13:33.524Z,12.70
2017-10-28T13:16:01.759Z,12.60
2017-10-28T13:18:30.017Z,12.60
2017-10-28T13:20:58.276Z,12.60
2017-10-28T13:23:26.532Z,12.60
2017-10-28T13:25:54.843Z,12.60
2017-10-28T13:28:23.255Z,12.60
2017-10-28T13:30:51.493Z,12.60
2017-10-28T13:33:19.839Z,12.60
2017-10-28T13:35:48.121Z,12.50
2017-10-28T13:38:16.368Z,12.60
2017-10-28T13:40:44.698Z,12.60
2017-10-28T13:43:12.951Z,12.60
2017-10-28T13:45:41.235Z,12.60
2017-10-28T13:48:09.479Z,12.60
2017-10-28T13:50:38.617Z,12.60
2017-10-28T13:53:06.871Z,12.60
2017-10-28T13:55:35.152Z,12.70
2017-10-28T13:58:03.425Z,12.60
2017-10-28T14:00:31.701Z,12.70
2017-10-28T14:03:00.104Z,12.60
2017-10-28T14:05:28.500Z,12.60
2017-10-28T14:07:56.759Z,12.50
2017-10-28T14:10:25.015Z,12.50
2017-10-28T14:12:53.299Z,12.50
2017-10-28T14:15:21.546Z,12.50
2017-10-28T14:17:49.859Z,12.50
2017-10-28T14:20:18.231Z,12.50
2017-10-28T14:22:47.291Z,12.50
2017-10-28T14:25:16.323Z,12.50
2017-10-28T14:27:44.774Z,12.40
2017-10-28T14:30:13.075Z,12.40
2017-10-28T14:32:42.066Z,12.50
2017-10-28T14:35:10.340Z,12.40
2017-10-28T14:37:38.638Z,12.50
2017-10-28T14:40:06.927Z,12.50
2017-10-28T14:42:35.233Z,12.50
2017-10-28T14:45:03.550Z,12.50
2017-10-28T14:47:31.989Z,12.50
2017-10-28T14:50:00.305Z,12.40
2017-10-28T14:52:28.564Z,12.40
2017-10-28T14:55:06.459Z,12.40
2017-10-28T14:57:34.704Z,12.30
2017-10-28T15:00:03.204Z,12.20
2017-10-28T15:02:31.448Z,12.20
2017-10-28T15:04:59.724Z,12.10
2017-10-28T15:07:27.997Z,12.10
2017-10-28T15:09:56.242Z,12.10
2017-10-28T15:12:24.534Z,12.10
2017-10-28T15:14:53.029Z,12.10
2017-10-28T15:17:21.291Z,12.00
2017-10-28T15:19:49.542Z,12.00
2017-10-28T15:22:17.840Z,11.90
2017-10-28T15:24:46.104Z,11.90
2017-10-28T15:27:14.654Z,12.00
2017-10-28T15:29:42.933Z,12.10
2017-10-28T15:32:11.225Z,12.20
2017-10-28T15:34:39.493Z,12.10
2017-10-28T15:37:07.757Z,12.00
2017-10-28T15:39:36.028Z,11.90
2017-10-28T15:42:04.312Z,11.90
2017-10-28T15:44:32.596Z,11.80
2017-10-28T15:47:00.851Z,11.80
2017-10-28T15:49:29.129Z,11.80
2017-10-28T15:51:58.178Z,11.70
2017-10-28T15:54:26.474Z,11.70
2017-10-28T15:56:54.726Z,11.70
2017-10-28T15:59:23.001Z,11.70
2017-10-28T16:01:51.350Z,11.70
2017-10-28T16:04:19.626Z,11.70
2017-10-28T16:06:47.940Z,11.60
2017-10-28T16:09:16.209Z,11.60
2017-10-28T16:11:44.541Z,11.60
2017-10-28T16:14:12.759Z,11.60
2017-10-28T16:16:41.035Z,11.60
2017-10-28T16:19:09.279Z,11.70
2017-10-28T16:21:37.555Z,11.60
2017-10-28T16:24:05.871Z,11.60
2017-10-28T16:26:34.152Z,11.60
2017-10-28T16:29:02.417Z,11.60
2017-10-28T16:31:30.887Z,11.60
2017-10-28T16:34:00.156Z,11.60
2017-10-28T16:36:28.419Z,11.60
2017-10-28T16:38:56.704Z,11.70
2017-10-28T16:41:24.984Z,11.70
2017-10-28T16:43:53.225Z,11.70
2017-10-28T16:46:21.469Z,11.60
2017-10-28T16:48:49.752Z,11.70
2017-10-28T16:51:18.123Z,11.70
2017-10-28T16:53:47.169Z,11.70
2017-10-28T16:56:15.420Z,11.60
2017-10-28T16:58:43.689Z,11.60
2017-10-28T17:01:11.983Z,11.60
2017-10-28T17:03:40.304Z,11.70
2017-10-28T17:06:08.534Z,11.60
2017-10-28T17:08:36.793Z,11.60
2017-10-28T17:11:05.047Z,11.60
2017-10-28T17:13:33.314Z,11.60
2017-10-28T17:16:01.722Z,11.60
2017-10-28T17:18:30.714Z,11.60
2017-10-28T17:20:58.997Z,11.60
2017-10-28T17:23:28.056Z,11.50
2017-10-28T17:25:56.539Z,11.60
2017-10-28T17:28:24.766Z,11.60
2017-10-28T17:30:53.050Z,11.60
2017-10-28T17:33:21.287Z,11.60
2017-10-28T17:35:49.572Z,11.60
2017-10-28T17:38:18.612Z,11.70
2017-10-28T17:40:46.858Z,11.70
2017-10-28T17:43:15.133Z,11.70
2017-10-28T17:45:43.387Z,11.70
2017-10-28T17:48:11.688Z,11.70
2017-10-28T17:50:39.931Z,11.70
2017-10-28T17:53:08.215Z,11.70
2017-10-28T17:55:36.489Z,11.70
2017-10-28T17:58:04.928Z,11.80
2017-10-28T18:00:33.178Z,11.70
2017-10-28T18:03:01.456Z,11.80
2017-10-28T18:05:29.745Z,11.80
2017-10-28T18:07:57.992Z,11.70
2017-10-28T18:10:26.255Z,11.80
2017-10-28T18:12:54.533Z,11.70
2017-10-28T18:15:22.828Z,11.80
2017-10-28T18:17:52.804Z,11.90
2017-10-28T18:20:21.033Z,11.80
2017-10-28T18:22:49.294Z,11.90
2017-10-28T18:25:17.577Z,11.90
2017-10-28T18:27:45.825Z,11.90
2017-10-28T18:30:14.096Z,11.90
2017-10-28T18:32:42.413Z,11.90
2017-10-28T18:35:10.659Z,12.00
2017-10-28T18:37:39.138Z,11.90
2017-10-28T18:40:07.588Z,12.00
2017-10-28T18:42:35.981Z,12.00
2017-10-28T18:45:05.054Z,12.00
2017-10-28T18:47:33.312Z,12.00
2017-10-28T18:50:04.501Z,12.00
2017-10-28T18:52:32.769Z,12.00
2017-10-28T18:55:01.864Z,12.10
2017-10-28T18:57:30.897Z,12.10
2017-10-28T18:59:59.209Z,12.10
2017-10-28T19:02:27.585Z,12.10
2017-10-28T19:04:55.836Z,12.10
2017-10-28T19:07:24.196Z,12.10
2017-10-28T19:09:52.473Z,12.10
2017-10-28T19:12:20.756Z,12.20
2017-10-28T19:14:49.030Z,12.20
2017-10-28T19:17:17.370Z,12.20
2017-10-28T19:19:45.621Z,12.20
2017-10-28T19:22:14.134Z,12.30
2017-10-28T19:24:42.427Z,12.30
2017-10-28T19:27:10.745Z,12.30
2017-10-28T19:29:39.029Z,12.30
2017-10-28T19:32:07.315Z,12.30
2017-10-28T19:34:35.615Z,12.30
2017-10-28T19:37:03.946Z,12.30
2017-10-28T19:39:32.176Z,12.40
2017-10-28T19:42:00.467Z,12.40
2017-10-28T19:44:28.800Z,12.40
2017-10-28T19:46:57.126Z,12.50
2017-10-28T19:49:25.421Z,12.50
2017-10-28T19:51:53.704Z,12.50
2017-10-28T19:57:52.953Z,12.50
2017-10-28T20:00:21.216Z,12.60
2017-10-28T20:02:49.495Z,12.60
2017-10-28T20:05:17.753Z,12.60
2017-10-28T20:07:46.033Z,12.60
2017-10-28T20:10:14.291Z,12.60
2017-10-28T20:12:42.519Z,12.70
2017-10-28T20:15:10.776Z,12.70
2017-10-28T20:17:39.178Z,12.70
2017-10-28T20:20:07.469Z,12.70
2017-10-28T20:22:35.709Z,12.70
2017-10-28T20:25:03.967Z,12.70
2017-10-28T20:27:32.217Z,12.70
2017-10-28T20:30:00.491Z,12.70
2017-10-28T20:32:28.746Z,12.70
2017-10-28T20:34:57.776Z,12.80
2017-10-28T20:37:26.057Z,12.70
2017-10-28T20:39:54.289Z,12.80
2017-10-28T20:42:22.812Z,12.90
2017-10-28T20:44:51.076Z,12.90
2017-10-28T20:47:19.357Z,12.80
2017-10-28T20:49:47.648Z,12.90
2017-10-28T20:52:15.965Z,12.90
2017-10-28T20:54:45.848Z,12.90
2017-10-28T20:57:14.940Z,13.00
2017-10-28T20:59:43.198Z,12.90
2017-10-28T21:02:11.496Z,13.00
2017-10-28T21:04:39.767Z,13.00
2017-10-28T21:07:08.066Z,13.00
2017-10-28T21:09:36.415Z,13.00
2017-10-28T21:12:07.935Z,13.00
2017-10-28T21:14:36.313Z,13.00
2017-10-28T21:17:04.586Z,13.00
2017-10-28T21:19:33.625Z,13.00
2017-10-28T21:22:01.884Z,13.00
2017-10-28T21:24:30.209Z,13.00
2017-10-28T21:26:58.448Z,13.00
2017-10-28T21:29:26.688Z,13.00
2017-10-28T21:31:55.706Z,13.10
2017-10-28T21:34:23.978Z,13.10
2017-10-28T21:36:52.234Z,13.10
2017-10-28T21:39:20.506Z,13.10
2017-10-28T21:41:48.752Z,13.10
2017-10-28T21:44:17.052Z,13.10
2017-10-28T21:46:45.281Z,13.10
2017-10-28T21:49:13.568Z,13.10
2017-10-28T21:51:41.820Z,13.20
2017-10-28T21:54:10.167Z,13.20
2017-10-28T21:56:38.450Z,13.20
2017-10-28T21:59:06.710Z,13.20
2017-10-28T22:01:34.983Z,13.20
2017-10-28T22:04:03.229Z,13.20
2017-10-28T22:06:31.515Z,13.20
2017-10-28T22:08:59.764Z,13.30
2017-10-28T22:11:28.051Z,13.30
2017-10-28T22:13:56.334Z,13.30
2017-10-28T22:16:24.602Z,13.30
2017-10-28T22:18:52.855Z,13.30
2017-10-28T22:21:21.129Z,13.40
2017-10-28T22:23:49.378Z,13.40
2017-10-28T22:26:18.385Z,13.50
2017-10-28T22:28:47.432Z,13.50
2017-10-28T22:31:15.705Z,13.50
2017-10-28T22:33:43.972Z,13.60
2017-10-28T22:36:12.333Z,13.60
2017-10-28T22:38:40.596Z,13.60
2017-10-28T22:41:08.844Z,13.60
2017-10-28T22:43:37.124Z,13.60
2017-10-28T22:46:05.595Z,13.60
2017-10-28T22:48:33.882Z,13.70
2017-10-28T22:51:02.110Z,13.70
2017-10-28T22:53:30.391Z,13.70
2017-10-28T22:55:58.643Z,13.70
2017-10-28T22:58:26.912Z,13.70
2017-10-28T23:00:55.185Z,13.80
2017-10-28T23:03:23.440Z,13.70
2017-10-28T23:05:52.484Z,13.80
2017-10-28T23:08:20.741Z,13.70
2017-10-28T23:10:49.010Z,13.80
2017-10-28T23:13:17.453Z,13.80
2017-10-28T23:15:45.719Z,13.80
2017-10-28T23:18:14.016Z,13.80
2017-10-28T23:20:42.265Z,13.80
2017-10-28T23:23:10.521Z,13.90
2017-10-28T23:25:38.788Z,13.90
2017-10-28T23:28:07.065Z,13.90
2017-10-28T23:30:35.318Z,13.90
2017-10-28T23:33:04.227Z,13.80
2017-10-28T23:35:32.516Z,13.90
2017-10-28T23:38:00.781Z,13.90
2017-10-28T23:40:29.031Z,13.80
2017-10-28T23:42:57.381Z,13.80
2017-10-28T23:45:25.624Z,13.80
2017-10-28T23:47:53.921Z,13.80
2017-10-28T23:50:22.418Z,13.80
2017-10-28T23:52:50.670Z,13.80
2017-10-28T23:55:18.924Z,13.80
2017-10-28T23:57:47.321Z,13.80
